Time;durP1;ratioP1;P1;durP2;ratioP2;P2;SDS_P1;SDS_P2;PMS_P1;PMS_P2;Temp;Humidity;BMP_temperature;BMP_pressure;BME280_temperature;BME280_humidity;BME280_pressure;Samples;Min_cycle;Max_cycle;Signal;HPM_P1;HPM_P2
2024/01/09 00:00:52;;;;;;;11.98;9.80;;;;;;;4.94;65.03;99100.72;5093362;28;20024;-47
2024/01/09 00:03:18;;;;;;;13.63;10.25;;;;;;;4.99;63.86;99090.69;5093343;28;20477;-47
2024/01/09 00:05:43;;;;;;;13.25;11.57;;;;;;;5.05;63.99;99097.06;5093198;28;20016;-47
2024/01/09 00:08:09;;;;;;;14.65;11.05;;;;;;;5.12;63.93;99097.25;5093238;28;20020;-47
2024/01/09 00:10:35;;;;;;;12.90;9.60;;;;;;;5.16;64.09;99093.38;5091493;28;20024;-48
2024/01/09 00:13:01;;;;;;;13.73;12.15;;;;;;;5.23;64.21;99091.78;5091852;28;20035;-47
2024/01/09 00:15:26;;;;;;;14.20;9.60;;;;;;;5.25;65.41;99089.03;5093078;28;20020;-47
2024/01/09 00:17:52;;;;;;;12.82;9.70;;;;;;;5.27;65.76;99094.88;5091731;28;20367;-48
2024/01/09 00:20:19;;;;;;;10.60;9.40;;;;;;;5.33;66.13;99089.06;5093026;28;20052;-47
2024/01/09 00:22:44;;;;;;;13.40;9.40;;;;;;;5.34;65.40;99093.31;5092899;28;20482;-47
2024/01/09 00:25:11;;;;;;;13.57;9.95;;;;;;;5.27;65.03;99100.91;5091622;28;20031;-47
2024/01/09 00:27:37;;;;;;;14.00;10.20;;;;;;;5.26;65.16;99104.47;5092913;28;20471;-47
2024/01/09 00:30:03;;;;;;;12.45;9.75;;;;;;;5.17;65.19;99102.78;5092882;28;20020;-48
2024/01/09 00:32:29;;;;;;;11.02;9.65;;;;;;;5.11;64.60;99101.66;5092807;28;20059;-47
2024/01/09 00:34:55;;;;;;;12.02;9.95;;;;;;;5.00;64.53;99100.13;5091111;28;20134;-47
2024/01/09 00:37:21;;;;;;;12.68;10.13;;;;;;;4.97;64.45;99104.81;5091387;28;20111;-47
2024/01/09 00:39:50;;;;;;;11.82;9.40;;;;;;;5.06;65.13;99108.28;5091335;28;20077;-47
2024/01/09 00:42:16;;;;;;;11.65;10.45;;;;;;;4.99;64.80;99102.91;5091313;28;20028;-47
2024/01/09 00:44:42;;;;;;;13.00;10.52;;;;;;;5.02;64.21;99102.56;5091253;28;20432;-47
2024/01/09 00:47:07;;;;;;;14.82;10.50;;;;;;;5.12;63.71;99099.88;5092484;28;20020;-47
2024/01/09 00:49:33;;;;;;;12.90;10.05;;;;;;;5.20;64.22;99110.31;5092520;28;20036;-48
2024/01/09 00:52:00;;;;;;;13.30;10.20;;;;;;;4.99;63.17;99114.09;5091156;28;20062;-48
2024/01/09 00:54:26;;;;;;;12.02;10.35;;;;;;;4.73;63.49;99115.91;5092258;28;20070;-48
2024/01/09 00:56:52;;;;;;;12.43;11.07;;;;;;;4.40;63.86;99119.03;5091029;28;20027;-47
2024/01/09 00:59:18;;;;;;;14.48;10.90;;;;;;;4.15;64.49;99122.41;5092382;28;20097;-48
2024/01/09 01:01:50;;;;;;;13.35;11.68;;;;;;;3.89;66.59;99119.72;5092181;28;20031;-47
2024/01/09 01:04:16;;;;;;;14.73;12.35;;;;;;;3.79;67.85;99125.78;5090982;28;20024;-48
2024/01/09 01:06:44;;;;;;;17.50;12.68;;;;;;;3.70;69.71;99129.25;5090793;28;20028;-48
2024/01/09 01:09:10;;;;;;;21.73;16.33;;;;;;;3.60;71.46;99131.91;5090843;28;20024;-48
2024/01/09 01:11:36;;;;;;;14.88;12.70;;;;;;;3.44;72.67;99125.69;5092544;28;20076;-48
2024/01/09 01:14:03;;;;;;;21.08;17.05;;;;;;;3.47;74.92;99122.81;5090726;28;20571;-47
2024/01/09 01:16:29;;;;;;;13.98;12.43;;;;;;;3.49;75.71;99111.31;5092141;28;20020;-47
2024/01/09 01:18:58;;;;;;;14.52;12.00;;;;;;;3.59;77.94;99119.06;5090779;28;20108;-47
2024/01/09 01:21:24;;;;;;;16.38;12.60;;;;;;;3.67;79.29;99115.75;5091303;28;20024;-47
2024/01/09 01:23:49;;;;;;;19.08;15.20;;;;;;;3.73;79.69;99115.16;5090644;28;20104;-47
2024/01/09 01:26:15;;;;;;;15.63;11.95;;;;;;;3.61;79.35;99124.91;5091933;28;20016;-47
2024/01/09 01:28:42;;;;;;;15.98;12.38;;;;;;;3.10;78.70;99124.47;5090649;28;20020;-48
2024/01/09 01:31:08;;;;;;;18.13;13.95;;;;;;;2.60;80.10;99133.28;5090616;28;20024;-47
2024/01/09 01:33:33;;;;;;;19.25;16.00;;;;;;;2.33;83.42;99131.38;5091837;28;20031;-47
2024/01/09 01:35:59;;;;;;;19.13;14.38;;;;;;;2.26;83.13;99134.66;5090330;28;20059;-47
2024/01/09 01:38:25;;;;;;;36.35;31.45;;;;;;;2.10;85.14;99135.19;5090487;28;20452;-47
2024/01/09 01:40:51;;;;;;;29.50;23.85;;;;;;;2.19;87.09;99132.63;5091841;28;20020;-47
2024/01/09 01:43:17;;;;;;;21.20;17.98;;;;;;;2.45;89.47;99134.66;5090460;28;20028;-47
2024/01/09 01:45:43;;;;;;;25.10;18.92;;;;;;;2.70;90.91;99138.47;5090539;28;20024;-47
2024/01/09 01:48:10;;;;;;;20.33;16.98;;;;;;;2.90;91.54;99133.25;5091753;28;20394;-47
2024/01/09 01:50:38;;;;;;;20.45;16.45;;;;;;;3.05;92.00;99134.41;5090420;28;20024;-48
2024/01/09 01:53:06;;;;;;;21.70;16.27;;;;;;;3.19;92.34;99128.78;5090512;28;20028;-47
2024/01/09 01:55:33;;;;;;;17.90;13.70;;;;;;;3.29;93.07;99128.75;5091600;28;20111;-48
2024/01/09 01:58:00;;;;;;;15.48;13.23;;;;;;;3.26;91.93;99136.81;5091633;28;20024;-48
2024/01/09 02:00:27;;;;;;;14.75;11.85;;;;;;;3.07;90.34;99126.50;5090333;28;20115;-47
2024/01/09 02:02:54;;;;;;;21.60;17.08;;;;;;;2.79;89.94;99121.25;5090330;28;20028;-48
2024/01/09 02:05:25;;;;;;;22.33;19.33;;;;;;;2.74;90.00;99134.63;5091531;28;20032;-47
2024/01/09 02:07:53;;;;;;;16.58;12.30;;;;;;;2.53;88.81;99128.78;5091477;28;20016;-48
2024/01/09 02:10:23;;;;;;;21.38;17.88;;;;;;;2.18;89.11;99125.78;5091484;28;20028;-47
2024/01/09 02:12:49;;;;;;;18.58;12.85;;;;;;;2.08;89.25;99130.16;5091429;28;20046;-47
2024/01/09 02:15:15;;;;;;;20.70;14.73;;;;;;;1.92;90.88;99128.09;5090178;28;20032;-47
2024/01/09 02:17:41;;;;;;;14.73;13.02;;;;;;;2.03;92.44;99121.97;5091462;28;20554;-47
2024/01/09 02:20:09;;;;;;;22.35;17.77;;;;;;;2.18;93.15;99122.41;5091470;28;20024;-48
2024/01/09 02:22:35;;;;;;;25.77;20.33;;;;;;;2.52;93.94;99114.22;5091437;28;20031;-47
2024/01/09 02:25:01;;;;;;;22.35;18.40;;;;;;;2.78;93.50;99120.44;5090077;28;20036;-47
2024/01/09 02:27:43;;;;;;;24.02;18.88;;;;;;;2.99;93.30;99112.47;5091384;28;20074;-47
2024/01/09 02:30:09;;;;;;;15.95;12.88;;;;;;;3.09;93.71;99116.81;5091413;28;20081;-47
2024/01/09 02:32:36;;;;;;;18.60;13.77;;;;;;;3.08;93.99;99104.78;5091660;28;20016;-47
2024/01/09 02:35:02;;;;;;;19.70;13.65;;;;;;;2.80;91.23;99105.56;5093347;28;20108;-47
2024/01/09 02:37:28;;;;;;;18.05;13.85;;;;;;;2.79;92.76;99103.09;5093757;28;20020;-47
2024/01/09 02:40:00;;;;;;;16.63;12.82;;;;;;;3.08;94.40;99104.78;5094951;28;20526;-48
2024/01/09 02:42:27;;;;;;;17.23;13.45;;;;;;;3.40;93.89;99105.22;5093708;28;20054;-47
2024/01/09 02:44:55;;;;;;;19.58;16.13;;;;;;;3.20;90.92;99112.28;5093761;28;20550;-47
2024/01/09 02:47:25;;;;;;;19.50;16.48;;;;;;;3.02;92.22;99100.16;5093493;28;20494;-47
2024/01/09 02:49:50;;;;;;;22.23;14.38;;;;;;;3.20;93.91;99103.69;5093483;28;20094;-48
2024/01/09 02:52:17;;;;;;;19.17;13.82;;;;;;;3.41;94.64;99098.25;5093406;28;20024;-48
2024/01/09 02:54:43;;;;;;;50.25;43.58;;;;;;;3.47;93.60;99100.25;5094603;28;20509;-47
2024/01/09 02:57:10;;;;;;;103.93;92.10;;;;;;;3.49;93.60;99106.13;5093385;28;20054;-47
2024/01/09 02:59:36;;;;;;;31.15;27.27;;;;;;;3.54;93.63;99098.75;5094608;28;20568;-47
2024/01/09 03:02:02;;;;;;;26.05;21.63;;;;;;;3.40;92.95;99100.03;5093343;28;20119;-48
2024/01/09 03:04:27;;;;;;;30.80;22.55;;;;;;;3.40;93.27;99099.19;5094579;28;20032;-47
2024/01/09 03:06:53;;;;;;;23.15;16.60;;;;;;;3.49;94.74;99092.34;5093099;28;20508;-48
2024/01/09 03:09:19;;;;;;;25.40;20.55;;;;;;;3.67;94.68;99092.38;5093139;28;20031;-48
2024/01/09 03:11:45;;;;;;;17.63;15.45;;;;;;;3.83;94.50;99091.75;5094390;28;20019;-48
2024/01/09 03:14:11;;;;;;;15.07;13.48;;;;;;;3.97;93.58;99088.63;5092965;28;20020;-48
2024/01/09 03:16:37;;;;;;;18.40;13.98;;;;;;;4.00;92.63;99090.91;5094339;28;20100;-48
2024/01/09 03:19:03;;;;;;;20.23;15.10;;;;;;;4.07;93.25;99085.97;5094273;28;20455;-48
2024/01/09 03:21:29;;;;;;;18.23;15.98;;;;;;;3.94;91.78;99088.91;5092988;28;20397;-48
2024/01/09 03:23:55;;;;;;;17.75;15.05;;;;;;;3.73;93.13;99091.81;5094166;28;20028;-48
2024/01/09 03:26:21;;;;;;;22.70;20.30;;;;;;;3.84;94.28;99088.16;5094338;28;20374;-48
2024/01/09 03:28:47;;;;;;;18.02;14.60;;;;;;;3.93;93.30;99087.28;5092750;28;20024;-48
2024/01/09 03:31:23;;;;;;;20.15;15.23;;;;;;;4.02;92.75;99080.38;5109714;28;20020;-48
2024/01/09 03:33:50;;;;;;;17.83;15.23;;;;;;;3.87;91.48;99080.91;5093894;28;20016;-48
2024/01/09 03:36:17;;;;;;;15.82;14.10;;;;;;;3.84;91.86;99083.78;5093702;28;20040;-48
2024/01/09 03:38:44;;;;;;;16.20;13.55;;;;;;;3.65;89.54;99076.94;5092530;28;20028;-48
2024/01/09 03:41:11;;;;;;;18.63;14.23;;;;;;;3.29;87.03;99081.25;5093851;28;20027;-48
2024/01/09 03:43:37;;;;;;;22.25;16.83;;;;;;;2.98;87.62;99079.72;5091767;28;20028;-47
2024/01/09 03:46:03;;;;;;;18.42;14.93;;;;;;;3.02;88.68;99082.88;5093683;28;20024;-48
2024/01/09 03:48:29;;;;;;;25.10;19.73;;;;;;;3.04;88.32;99072.31;5093721;28;20099;-48
2024/01/09 03:50:55;;;;;;;18.52;15.23;;;;;;;3.14;89.45;99086.91;5093904;28;20024;-48
2024/01/09 03:53:21;;;;;;;27.65;15.93;;;;;;;3.31;89.67;99080.13;5093558;28;20034;-48
2024/01/09 03:55:47;;;;;;;22.48;16.73;;;;;;;3.41;89.43;99085.28;5092268;28;20030;-48
2024/01/09 03:58:13;;;;;;;16.75;14.43;;;;;;;3.48;88.41;99085.50;5092238;28;20402;-47
2024/01/09 04:00:39;;;;;;;18.73;14.85;;;;;;;3.65;87.37;99082.13;5093485;28;20024;-48
2024/01/09 04:03:05;;;;;;;27.73;20.10;;;;;;;3.79;86.47;99080.81;5093399;28;20077;-48
2024/01/09 04:05:31;;;;;;;17.35;14.40;;;;;;;3.99;85.55;99073.72;5092112;28;20108;-48
2024/01/09 04:07:57;;;;;;;18.80;14.38;;;;;;;4.19;85.01;99070.00;5091972;28;20024;-48
2024/01/09 04:10:23;;;;;;;15.77;13.15;;;;;;;4.33;84.95;99067.84;5093267;28;20027;-48
2024/01/09 04:12:49;;;;;;;16.15;12.05;;;;;;;4.24;82.32;99064.34;5091835;28;20398;-48
2024/01/09 04:15:15;;;;;;;22.38;13.70;;;;;;;3.68;81.16;99065.44;5091926;28;20024;-48
2024/01/09 04:17:41;;;;;;;16.50;12.88;;;;;;;3.66;83.07;99067.38;5093164;28;20085;-48
2024/01/09 04:20:08;;;;;;;15.90;12.82;;;;;;;3.75;83.01;99071.69;5092983;28;20024;-48
2024/01/09 04:22:34;;;;;;;23.83;14.52;;;;;;;3.28;80.18;99069.22;5091672;28;20028;-48
2024/01/09 04:24:59;;;;;;;59.55;46.90;;;;;;;3.17;82.52;99073.63;5091635;28;20032;-48
2024/01/09 04:27:25;;;;;;;19.58;15.90;;;;;;;3.30;83.57;99064.72;5092883;28;20079;-47
2024/01/09 04:29:51;;;;;;;19.83;14.48;;;;;;;3.22;81.15;99065.44;5092844;28;20565;-47
2024/01/09 04:32:16;;;;;;;18.73;14.68;;;;;;;3.29;83.21;99069.09;5091513;28;20513;-48
2024/01/09 04:34:43;;;;;;;19.42;16.83;;;;;;;3.44;84.65;99068.59;5092458;28;20131;-48
2024/01/09 04:37:09;;;;;;;24.38;19.60;;;;;;;3.49;84.88;99064.59;5091421;28;20464;-48
2024/01/09 04:39:34;;;;;;;22.23;17.90;;;;;;;3.37;83.88;99060.59;5092731;28;20024;-48
2024/01/09 04:42:00;;;;;;;20.38;15.95;;;;;;;3.15;83.74;99060.00;5091269;28;20467;-47
2024/01/09 04:44:26;;;;;;;24.85;19.55;;;;;;;3.10;85.53;99064.81;5092620;28;20070;-48
2024/01/09 04:46:51;;;;;;;21.23;15.82;;;;;;;3.23;86.63;99068.84;5091239;28;20024;-47
2024/01/09 04:49:17;;;;;;;18.08;15.20;;;;;;;3.22;86.27;99062.84;5092497;28;20502;-47
2024/01/09 04:51:44;;;;;;;20.00;15.68;;;;;;;3.10;86.63;99053.59;5091129;28;20028;-48
2024/01/09 04:54:10;;;;;;;28.73;19.80;;;;;;;2.87;85.80;99064.34;5091112;28;20027;-48
2024/01/09 04:56:36;;;;;;;25.38;18.65;;;;;;;2.56;86.79;99068.94;5090140;28;20398;-48
2024/01/09 04:59:01;;;;;;;29.00;22.10;;;;;;;2.38;88.48;99067.03;5092356;28;20025;-47
2024/01/09 05:01:28;;;;;;;30.85;22.55;;;;;;;2.33;90.03;99076.19;5091061;28;20032;-47
2024/01/09 05:03:54;;;;;;;39.55;29.88;;;;;;;2.29;91.42;99077.41;5092205;28;20580;-47
2024/01/09 05:06:20;;;;;;;33.97;23.75;;;;;;;2.28;92.45;99076.59;5092271;28;20141;-47
2024/01/09 05:08:46;;;;;;;36.40;28.15;;;;;;;2.33;93.96;99073.59;5090844;28;20032;-47
2024/01/09 05:11:12;;;;;;;43.00;29.67;;;;;;;2.43;95.94;99082.16;5092189;28;20024;-48
2024/01/09 05:13:38;;;;;;;69.22;50.80;;;;;;;2.45;96.29;99080.25;5090781;28;20020;-48
2024/01/09 05:16:04;;;;;;;36.65;28.15;;;;;;;2.44;97.15;99070.84;5092083;28;20043;-47
2024/01/09 05:18:31;;;;;;;39.58;25.90;;;;;;;2.45;98.46;99077.66;5092335;28;20489;-47
2024/01/09 05:20:57;;;;;;;36.95;26.83;;;;;;;2.46;98.92;99076.72;5092033;28;20031;-47
2024/01/09 05:23:23;;;;;;;36.30;25.85;;;;;;;2.43;98.40;99078.75;5090699;28;20405;-47
2024/01/09 05:25:49;;;;;;;32.40;25.20;;;;;;;2.19;98.25;99085.19;5090582;28;20069;-47
2024/01/09 05:28:18;;;;;;;40.50;28.08;;;;;;;2.20;100.00;99084.25;5091996;28;20016;-47
2024/01/09 05:30:43;;;;;;;45.08;24.85;;;;;;;2.25;100.00;99076.84;5091859;28;20016;-47
2024/01/09 05:33:09;;;;;;;52.67;29.88;;;;;;;2.29;100.00;99080.00;5091890;28;20393;-47
2024/01/09 05:35:35;;;;;;;131.30;35.47;;;;;;;2.38;100.00;99081.78;5090171;28;20054;-47
2024/01/09 05:38:01;;;;;;;31.92;20.27;;;;;;;2.44;100.00;99077.81;5090531;28;20451;-47
2024/01/09 05:40:27;;;;;;;33.15;22.98;;;;;;;2.24;100.00;99075.25;5090494;28;20024;-47
2024/01/09 05:42:53;;;;;;;38.78;18.95;;;;;;;1.85;100.00;99082.16;5073662;28;20505;-47
2024/01/09 05:45:18;;;;;;;41.17;25.58;;;;;;;1.63;100.00;99084.06;5091715;28;20028;-47
2024/01/09 05:47:44;;;;;;;50.75;35.90;;;;;;;1.75;100.00;99074.38;5091680;28;20062;-47
2024/01/09 05:50:10;;;;;;;47.78;34.05;;;;;;;1.98;100.00;99074.97;5090465;28;20028;-47
2024/01/09 05:52:37;;;;;;;39.40;32.28;;;;;;;2.23;100.00;99077.97;5091715;28;20024;-47
2024/01/09 05:55:06;;;;;;;45.50;31.42;;;;;;;2.34;100.00;99080.41;5090229;28;20088;-47
2024/01/09 05:57:32;;;;;;;39.15;25.65;;;;;;;2.32;100.00;99079.75;5090358;28;20028;-47
2024/01/09 05:59:58;;;;;;;35.33;25.63;;;;;;;2.24;100.00;99080.41;5091651;28;20394;-47
2024/01/09 06:02:25;;;;;;;24.40;17.85;;;;;;;2.02;100.00;99089.28;5090365;28;20032;-47
2024/01/09 06:04:51;;;;;;;34.92;21.88;;;;;;;1.79;100.00;99081.78;5091507;28;20118;-47
2024/01/09 06:07:17;;;;;;;30.35;22.35;;;;;;;1.55;100.00;99089.06;5092778;28;20104;-47
2024/01/09 06:09:43;;;;;;;39.75;25.63;;;;;;;1.42;100.00;99096.25;5094302;28;20039;-47
2024/01/09 06:12:09;;;;;;;36.78;26.27;;;;;;;1.38;100.00;99095.69;5094113;28;20025;-47
2024/01/09 06:14:35;;;;;;;42.13;24.58;;;;;;;1.44;100.00;99091.75;5095355;28;20078;-47
2024/01/09 06:17:01;;;;;;;44.80;24.38;;;;;;;1.46;100.00;99097.63;5094108;28;20028;-47
2024/01/09 06:19:26;;;;;;;30.95;22.77;;;;;;;1.46;100.00;99095.03;5094070;28;20032;-47
2024/01/09 06:21:52;;;;;;;34.17;23.50;;;;;;;1.55;100.00;99094.22;5094013;28;20024;-47
2024/01/09 06:24:18;;;;;;;41.47;28.27;;;;;;;1.66;100.00;99101.88;5095267;28;20551;-47
2024/01/09 06:26:44;;;;;;;37.88;26.17;;;;;;;1.76;100.00;99099.31;5095200;28;20055;-46
2024/01/09 06:29:10;;;;;;;39.20;26.42;;;;;;;1.96;100.00;99107.94;5095259;28;20024;-47
2024/01/09 06:31:35;;;;;;;53.08;35.42;;;;;;;2.15;100.00;99099.34;5093847;28;20105;-47
2024/01/09 06:34:01;;;;;;;51.25;36.47;;;;;;;2.31;100.00;99096.22;5093400;28;20485;-47
2024/01/09 06:36:27;;;;;;;36.42;25.98;;;;;;;1.94;100.00;99094.31;5095099;28;20039;-47
2024/01/09 06:38:52;;;;;;;41.30;27.80;;;;;;;1.86;100.00;99094.97;5093690;28;20013;-47
2024/01/09 06:41:18;;;;;;;31.83;22.70;;;;;;;1.96;100.00;99098.38;5094974;28;20537;-45
2024/01/09 06:43:44;;;;;;;38.03;27.63;;;;;;;2.00;100.00;99093.78;5094946;28;20012;-47
2024/01/09 06:46:10;;;;;;;34.80;23.63;;;;;;;1.99;100.00;99092.97;5094802;28;20065;-47
2024/01/09 06:48:36;;;;;;;40.13;24.70;;;;;;;2.00;100.00;99092.00;5094912;28;20443;-47
2024/01/09 06:51:01;;;;;;;34.20;24.95;;;;;;;1.98;100.00;99088.72;5093508;28;20016;-47
2024/01/09 06:53:27;;;;;;;36.80;24.63;;;;;;;2.18;100.00;99099.09;5094668;28;20041;-47
2024/01/09 06:55:53;;;;;;;34.50;23.42;;;;;;;2.22;100.00;99097.06;5093388;28;20058;-47
2024/01/09 06:58:19;;;;;;;36.63;25.92;;;;;;;2.03;100.00;99096.06;5093676;28;20020;-47
2024/01/09 07:00:45;;;;;;;32.67;20.38;;;;;;;1.95;100.00;99090.75;5094632;28;20032;-47
2024/01/09 07:03:10;;;;;;;47.85;28.15;;;;;;;1.76;100.00;99100.13;5093382;28;20023;-47
2024/01/09 07:05:36;;;;;;;39.53;25.80;;;;;;;1.89;100.00;99099.06;5093189;28;20034;-46
2024/01/09 07:08:03;;;;;;;39.00;26.42;;;;;;;2.10;100.00;99101.53;5094498;28;20020;-47
2024/01/09 07:10:29;;;;;;;34.97;24.48;;;;;;;2.05;100.00;99101.13;5094463;28;20023;-47
2024/01/09 07:12:55;;;;;;;44.75;24.98;;;;;;;1.94;100.00;99107.25;5092994;28;20020;-45
2024/01/09 07:15:21;;;;;;;41.72;25.20;;;;;;;1.79;100.00;99107.66;5092919;28;20394;-45
2024/01/09 07:17:50;;;;;;;81.50;36.63;;;;;;;1.75;100.00;99106.28;5094289;28;20024;-45
2024/01/09 07:20:16;;;;;;;52.40;34.58;;;;;;;1.83;100.00;99103.00;5093173;28;20024;-45
2024/01/09 07:22:42;;;;;;;48.95;33.30;;;;;;;1.95;100.00;99106.28;5094461;28;20062;-45
2024/01/09 07:25:08;;;;;;;53.78;31.23;;;;;;;2.13;100.00;99109.88;5094089;28;20106;-45
2024/01/09 07:27:34;;;;;;;56.50;33.78;;;;;;;2.23;100.00;99112.44;5094158;28;20020;-45
2024/01/09 07:30:00;;;;;;;53.95;34.92;;;;;;;2.35;100.00;99107.94;5094001;28;20032;-47
2024/01/09 07:32:26;;;;;;;54.47;34.92;;;;;;;2.41;100.00;99112.56;5092706;28;20024;-47
2024/01/09 07:34:52;;;;;;;67.07;42.00;;;;;;;2.47;100.00;99112.00;5093656;28;20117;-47
2024/01/09 07:37:18;;;;;;;96.65;42.10;;;;;;;2.59;100.00;99117.88;5109647;28;20020;-47
2024/01/09 07:39:44;;;;;;;50.25;33.00;;;;;;;2.66;100.00;99121.56;5109625;28;20032;-47
2024/01/09 07:42:12;;;;;;;44.25;29.58;;;;;;;2.71;100.00;99123.72;5092458;28;20043;-47
2024/01/09 07:44:38;;;;;;;52.88;30.52;;;;;;;2.82;100.00;99126.16;5094030;28;20119;-47
2024/01/09 07:47:04;;;;;;;67.57;31.55;;;;;;;2.83;100.00;99120.00;5093630;28;20553;-47
2024/01/09 07:49:30;;;;;;;61.28;29.80;;;;;;;2.83;100.00;99117.41;5093735;28;20020;-47
2024/01/09 07:51:56;;;;;;;47.90;27.20;;;;;;;2.89;100.00;99116.03;5093652;28;20085;-46
2024/01/09 07:54:22;;;;;;;51.10;28.20;;;;;;;2.94;100.00;99132.00;5093463;28;20490;-45
2024/01/09 07:56:48;;;;;;;39.33;28.27;;;;;;;3.02;100.00;99126.94;5092155;28;20028;-45
2024/01/09 07:59:14;;;;;;;43.80;27.67;;;;;;;2.96;100.00;99122.31;5093496;28;20072;-45
2024/01/09 08:01:39;;;;;;;37.97;27.85;;;;;;;2.91;100.00;99124.50;5093333;28;20469;-45
2024/01/09 08:04:08;;;;;;;77.32;44.45;;;;;;;2.88;100.00;99125.59;5092096;28;20397;-44
2024/01/09 08:06:34;;;;;;;59.42;36.17;;;;;;;2.81;100.00;99129.69;5093304;28;20024;-47
2024/01/09 08:08:59;;;;;;;48.60;28.17;;;;;;;2.84;100.00;99129.44;5091927;28;20024;-47
2024/01/09 08:11:25;;;;;;;109.22;62.80;;;;;;;2.84;100.00;99126.84;5091900;28;20035;-47
2024/01/09 08:13:51;;;;;;;42.33;25.75;;;;;;;2.80;100.00;99128.09;5091784;28;20060;-47
2024/01/09 08:16:17;;;;;;;48.50;30.35;;;;;;;2.74;100.00;99129.44;5093136;28;20020;-47
2024/01/09 08:18:43;;;;;;;38.60;24.35;;;;;;;2.69;100.00;99141.19;5093119;28;20054;-47
2024/01/09 08:21:09;;;;;;;47.20;28.17;;;;;;;2.61;100.00;99144.47;5093025;28;20024;-47
2024/01/09 08:23:35;;;;;;;49.97;37.95;;;;;;;2.68;100.00;99145.56;5092932;28;20021;-47
2024/01/09 08:26:02;;;;;;;51.47;30.00;;;;;;;2.84;100.00;99152.75;5091648;28;20107;-47
2024/01/09 08:28:27;;;;;;;49.20;28.50;;;;;;;3.04;100.00;99147.50;5093181;28;20066;-47
2024/01/09 08:30:53;;;;;;;54.83;33.50;;;;;;;3.11;100.00;99157.19;5092619;28;20502;-47
2024/01/09 08:33:19;;;;;;;59.92;30.13;;;;;;;3.12;100.00;99160.59;5092853;28;20031;-47
2024/01/09 08:35:49;;;;;;;45.85;30.67;;;;;;;3.14;100.00;99162.13;5091027;28;20456;-45
2024/01/09 08:38:17;;;;;;;40.65;27.00;;;;;;;3.03;100.00;99157.06;5092791;28;20036;-45
2024/01/09 08:40:43;;;;;;;42.72;31.33;;;;;;;3.02;100.00;99163.25;5092698;28;20020;-45
2024/01/09 08:43:09;;;;;;;44.25;28.65;;;;;;;3.10;100.00;99163.34;5092631;28;20028;-45
2024/01/09 08:45:36;;;;;;;62.47;46.97;;;;;;;3.07;100.00;99175.78;5092577;28;20386;-45
2024/01/09 08:48:01;;;;;;;39.80;30.85;;;;;;;3.04;100.00;99176.03;5092633;28;20073;-45
2024/01/09 08:50:27;;;;;;;40.22;26.48;;;;;;;3.03;100.00;99183.00;5092611;28;20028;-47
2024/01/09 08:52:54;;;;;;;40.08;26.83;;;;;;;2.99;100.00;99187.66;5091203;28;20397;-47
2024/01/09 08:55:20;;;;;;;37.30;29.73;;;;;;;3.04;100.00;99187.25;5091066;28;20039;-47
2024/01/09 08:57:46;;;;;;;37.35;26.15;;;;;;;3.13;100.00;99186.41;5092455;28;20024;-47
2024/01/09 09:00:13;;;;;;;33.75;22.10;;;;;;;3.05;100.00;99188.88;5091101;28;20089;-47
2024/01/09 09:02:38;;;;;;;25.65;17.80;;;;;;;2.95;100.00;99194.06;5092366;28;20028;-47
2024/01/09 09:05:05;;;;;;;37.30;26.55;;;;;;;2.75;100.00;99184.69;5092268;28;20031;-47
2024/01/09 09:07:31;;;;;;;34.85;22.13;;;;;;;2.78;100.00;99192.19;5092288;28;20481;-47
2024/01/09 09:09:57;;;;;;;31.13;23.00;;;;;;;2.75;100.00;99182.91;5092191;28;20027;-47
2024/01/09 09:12:23;;;;;;;43.47;28.95;;;;;;;2.89;100.00;99186.84;5092096;28;20432;-45
2024/01/09 09:14:49;;;;;;;34.15;24.13;;;;;;;2.86;100.00;99184.56;5092055;28;20028;-45
2024/01/09 09:17:16;;;;;;;30.70;24.27;;;;;;;2.75;100.00;99184.69;5092074;28;20028;-45
2024/01/09 09:19:42;;;;;;;41.67;23.70;;;;;;;2.60;100.00;99184.28;5092063;28;20045;-45
2024/01/09 09:22:08;;;;;;;40.83;25.23;;;;;;;2.78;100.00;99192.19;5092006;28;20028;-47
2024/01/09 09:24:34;;;;;;;43.00;24.65;;;;;;;2.86;100.00;99199.25;5090736;28;20068;-46
2024/01/09 09:27:00;;;;;;;45.42;27.20;;;;;;;3.14;100.00;99193.22;5090585;28;20128;-47
2024/01/09 09:29:26;;;;;;;36.90;23.63;;;;;;;3.48;100.00;99197.91;5091970;28;20039;-47
2024/01/09 09:31:51;;;;;;;41.88;22.52;;;;;;;3.75;100.00;99204.09;5090590;28;20035;-47
2024/01/09 09:34:17;;;;;;;34.97;24.02;;;;;;;3.73;100.00;99204.22;5090260;28;20031;-47
2024/01/09 09:36:44;;;;;;;39.08;26.38;;;;;;;3.71;100.00;99205.34;5090605;28;20164;-46
2024/01/09 09:39:10;;;;;;;36.60;25.42;;;;;;;3.77;100.00;99205.56;5091811;28;20095;-47
2024/01/09 09:41:36;;;;;;;33.45;25.23;;;;;;;3.92;100.00;99198.09;5091766;28;20099;-47
2024/01/09 09:44:09;;;;;;;54.90;39.72;;;;;;;4.08;100.00;99191.47;5098540;28;20023;-46
2024/01/09 09:46:39;;;;;;;173.52;130.60;;;;;;;4.16;100.00;99201.94;5098455;28;20020;-46
2024/01/09 09:49:05;;;;;;;106.43;90.55;;;;;;;4.02;100.00;99215.44;5098445;28;20433;-47
2024/01/09 09:51:32;;;;;;;79.85;58.22;;;;;;;3.62;100.00;99227.75;5097134;28;20039;-46
2024/01/09 09:53:58;;;;;;;81.13;58.17;;;;;;;3.51;100.00;99226.16;5097092;28;20050;-45
2024/01/09 09:56:25;;;;;;;44.47;31.40;;;;;;;3.66;100.00;99217.91;5098437;28;20019;-45
2024/01/09 09:58:50;;;;;;;61.35;34.25;;;;;;;3.38;100.00;99210.91;5097201;28;20024;-44
2024/01/09 10:01:18;;;;;;;45.35;27.98;;;;;;;3.05;100.00;99214.00;5098359;28;20035;-45
2024/01/09 10:04:24;;;;;;;44.95;27.42;;;;;;;2.84;100.00;99208.94;5097076;28;20024;-46
2024/01/09 10:06:55;;;;;;;47.78;32.72;;;;;;;3.31;100.00;99189.09;5098319;28;20040;-46
2024/01/09 10:09:23;;;;;;;45.03;32.78;;;;;;;3.81;100.00;99203.50;5098285;28;20036;-47
2024/01/09 10:11:49;;;;;;;37.72;25.70;;;;;;;3.96;100.00;99209.88;5096937;28;20109;-47
2024/01/09 10:14:16;;;;;;;39.10;27.00;;;;;;;3.74;100.00;99205.88;5096832;28;20399;-47
2024/01/09 10:16:55;;;;;;;45.42;27.95;;;;;;;3.79;100.00;99211.44;5098247;28;20562;-47
2024/01/09 10:19:24;;;;;;;36.90;25.80;;;;;;;3.85;100.00;99211.84;5096922;28;20020;-47
2024/01/09 10:21:50;;;;;;;40.17;27.65;;;;;;;3.90;100.00;99205.22;5098167;28;20039;-47
2024/01/09 10:24:16;;;;;;;37.38;27.27;;;;;;;3.90;100.00;99210.41;5098250;28;20024;-47
2024/01/09 10:26:43;;;;;;;56.22;39.15;;;;;;;4.13;100.00;99208.25;5098173;28;20020;-47
2024/01/09 10:29:10;;;;;;;39.67;24.58;;;;;;;4.08;100.00;99202.66;5098401;28;20020;-45
2024/01/09 10:31:38;;;;;;;32.05;22.55;;;;;;;4.09;100.00;99196.53;5096776;28;20169;-45
2024/01/09 10:34:05;;;;;;;52.47;36.97;;;;;;;3.99;100.00;99211.34;5096759;28;20105;-45
2024/01/09 10:36:31;;;;;;;34.47;25.50;;;;;;;3.78;100.00;99209.81;5096606;28;20050;-45
2024/01/09 10:39:04;;;;;;;31.98;22.02;;;;;;;3.49;100.00;99212.50;5097091;28;20386;-45
2024/01/09 10:41:31;;;;;;;34.05;22.42;;;;;;;3.30;100.00;99209.97;5098025;28;20035;-45
2024/01/09 10:43:59;;;;;;;37.17;23.92;;;;;;;3.18;100.00;99204.97;5098037;28;20051;-44
2024/01/09 10:46:26;;;;;;;39.17;24.63;;;;;;;3.31;100.00;99199.47;5098231;28;20034;-45
2024/01/09 10:48:55;;;;;;;35.55;23.88;;;;;;;3.44;100.00;99191.38;5096642;28;20024;-46
2024/01/09 10:51:23;;;;;;;32.13;20.75;;;;;;;3.49;100.00;99196.94;5096604;28;20058;-46
2024/01/09 10:53:50;;;;;;;35.38;23.98;;;;;;;3.74;100.00;99190.31;5094835;28;20451;-47
2024/01/09 10:56:21;;;;;;;34.30;24.35;;;;;;;4.02;100.00;99195.47;5094732;28;20031;-47
2024/01/09 10:58:49;;;;;;;31.58;21.48;;;;;;;4.23;100.00;99191.81;5094672;28;20110;-47
2024/01/09 11:01:16;;;;;;;32.30;22.88;;;;;;;4.43;100.00;99201.09;5094627;28;20020;-47
2024/01/09 11:03:44;;;;;;;29.13;22.92;;;;;;;4.53;100.00;99201.84;5094554;28;20030;-47
2024/01/09 11:06:11;;;;;;;28.25;21.25;;;;;;;4.63;100.00;99185.34;5094763;28;20101;-47
2024/01/09 11:08:37;;;;;;;25.20;20.33;;;;;;;4.60;100.00;99183.84;5094498;28;20047;-47
2024/01/09 11:11:07;;;;;;;29.75;24.20;;;;;;;4.47;100.00;99173.03;5094357;28;20095;-47
2024/01/09 11:13:37;;;;;;;32.70;23.63;;;;;;;4.39;100.00;99179.78;5094364;28;20017;-47
2024/01/09 11:16:05;;;;;;;30.85;20.95;;;;;;;4.46;100.00;99186.97;5094568;28;20044;-47
2024/01/09 11:18:32;;;;;;;33.88;24.52;;;;;;;4.43;100.00;99179.47;5093034;28;20450;-47